Time;durP1;ratioP1;P1;durP2;ratioP2;P2;SDS_P1;SDS_P2;PMS_P1;PMS_P2;Temp;Humidity;BMP_temperature;BMP_pressure;BME280_temperature;BME280_humidity;BME280_pressure;Samples;Min_cycle;Max_cycle;Signal;HPM_P1;HPM_P2
2022/06/02 03:01:43;;;;;;;;;;;23.60;41.20;;;;;;5352840;23;45876;-62
2022/06/02 03:04:19;;;;;;;;;;;23.60;41.30;;;;;;4896985;28;45104;-62
2022/06/02 03:06:44;;;;;;;;;;;23.60;41.30;;;;;;4899301;28;45509;-62
2022/06/02 03:09:12;;;;;;;;;;;23.60;41.40;;;;;;4899282;28;45944;-63
2022/06/02 03:11:53;;;;;;;;;;;23.60;41.40;;;;;;4879725;28;47074;-63
2022/06/02 03:14:28;;;;;;;;;;;23.50;41.40;;;;;;4916060;28;45458;-62
2022/06/02 03:16:57;;;;;;;;;;;23.50;41.60;;;;;;4922869;28;44966;-63
2022/06/02 03:19:28;;;;;;;;;;;23.50;42.10;;;;;;4882720;28;45676;-62
2022/06/02 03:21:55;;;;;;;;;;;23.50;41.50;;;;;;4917122;28;45615;-63
2022/06/02 03:24:20;;;;;;;;;;;23.50;41.50;;;;;;4894461;28;45522;-62
2022/06/02 03:26:58;;;;;;;;;;;23.50;41.50;;;;;;4919896;28;45713;-63
2022/06/02 03:29:23;;;;;;;;;;;23.40;41.50;;;;;;4922169;28;45219;-62
2022/06/02 03:32:08;;;;;;;;;;;23.50;41.60;;;;;;4916805;28;45507;-62
2022/06/02 03:34:39;;;;;;;;;;;23.40;41.60;;;;;;4899700;28;45471;-62
2022/06/02 03:37:20;;;;;;;;;;;23.40;41.60;;;;;;4919197;28;45311;-62
2022/06/02 03:39:49;;;;;;;;;;;23.40;41.60;;;;;;4922482;28;45268;-62
2022/06/02 03:42:15;;;;;;;;;;;23.40;41.50;;;;;;4918318;28;46052;-61
2022/06/02 03:44:46;;;;;;;;;;;23.40;41.60;;;;;;4920201;28;45555;-63
2022/06/02 03:47:31;;;;;;;;;;;23.40;41.60;;;;;;4919263;28;44749;-62
2022/06/02 03:50:02;;;;;;;;;;;23.40;41.70;;;;;;4918584;28;45495;-62
2022/06/02 03:52:31;;;;;;;;;;;23.40;41.60;;;;;;4922950;28;45509;-62
2022/06/02 03:55:08;;;;;;;;;;;23.40;41.70;;;;;;4920552;28;45289;-62
2022/06/02 03:57:53;;;;;;;;;;;23.50;41.70;;;;;;4907838;28;44979;-62
2022/06/02 04:00:26;;;;;;;;;;;23.40;41.70;;;;;;4914818;28;45349;-63
2022/06/02 04:02:51;;;;;;;;;;;23.40;41.70;;;;;;4936883;28;46600;-62
2022/06/02 04:05:20;;;;;;;;;;;23.40;41.70;;;;;;4937968;28;45519;-65
2022/06/02 04:07:46;;;;;;;;;;;23.40;41.70;;;;;;4922437;28;45131;-62
2022/06/02 04:10:31;;;;;;;;;;;23.40;41.70;;;;;;4937879;28;45251;-62
2022/06/02 04:15:56;;;;;;;;;;;23.40;41.80;;;;;;4935305;28;45216;-61
2022/06/02 04:18:21;;;;;;;;;;;23.40;41.80;;;;;;4938516;28;45392;-63
2022/06/02 04:20:50;;;;;;;;;;;23.30;41.80;;;;;;4936575;28;46269;-62
2022/06/02 04:23:34;;;;;;;;;;;23.40;41.80;;;;;;4938127;28;46141;-63
2022/06/02 04:26:14;;;;;;;;;;;23.40;41.80;;;;;;4921824;28;45444;-62
2022/06/02 04:28:43;;;;;;;;;;;23.40;41.80;;;;;;4937435;28;45276;-63
2022/06/02 04:31:28;;;;;;;;;;;23.40;41.80;;;;;;4935356;28;45695;-63
2022/06/02 04:33:59;;;;;;;;;;;23.40;41.80;;;;;;4936112;28;46234;-62
2022/06/02 04:36:25;;;;;;;;;;;23.40;41.80;;;;;;4938000;28;45047;-60
2022/06/02 04:39:09;;;;;;;;;;;23.40;41.80;;;;;;4939642;28;45010;-62
2022/06/02 04:41:48;;;;;;;;;;;23.40;41.80;;;;;;4934147;28;45256;-61
2022/06/02 04:44:21;;;;;;;;;;;23.40;41.90;;;;;;4921515;28;45484;-62
2022/06/02 04:46:59;;;;;;;;;;;23.40;41.90;;;;;;4936889;28;45104;-63
2022/06/02 04:49:32;;;;;;;;;;;23.30;41.90;;;;;;4938500;28;45497;-63
2022/06/02 04:51:57;;;;;;;;;;;23.30;41.90;;;;;;4938248;28;45190;-62
2022/06/02 04:54:29;;;;;;;;;;;23.30;41.90;;;;;;4932479;28;45168;-63
2022/06/02 04:57:03;;;;;;;;;;;23.30;41.90;;;;;;4933047;28;45328;-63
2022/06/02 04:59:48;;;;;;;;;;;23.30;41.90;;;;;;4921017;28;45547;-63
2022/06/02 05:02:21;;;;;;;;;;;23.30;42.10;;;;;;4928963;28;45003;-62
2022/06/02 05:04:56;;;;;;;;;;;23.30;42.00;;;;;;4918058;28;45486;-63
2022/06/02 05:07:28;;;;;;;;;;;23.30;42.00;;;;;;4920926;28;45537;-63
2022/06/02 05:10:12;;;;;;;;;;;23.30;42.00;;;;;;4937421;28;45278;-62
2022/06/02 05:12:52;;;;;;;;;;;23.30;41.90;;;;;;4934813;28;45417;-62
2022/06/02 05:15:37;;;;;;;;;;;23.40;41.80;;;;;;4931647;28;45528;-62
2022/06/02 05:18:03;;;;;;;;;;;23.40;41.80;;;;;;4934734;28;45005;-62
2022/06/02 05:20:29;;;;;;;;;;;23.40;41.80;;;;;;4933154;28;45148;-61
2022/06/02 05:22:59;;;;;;;;;;;23.40;41.70;;;;;;4933601;28;45501;-62
2022/06/02 05:25:44;;;;;;;;;;;23.50;42.20;;;;;;4921581;28;45307;-63
2022/06/02 05:28:25;;;;;;;;;;;23.50;41.40;;;;;;4917718;28;45612;-63
2022/06/02 05:31:07;;;;;;;;;;;23.60;41.30;;;;;;4932501;28;45208;-63
2022/06/02 05:33:35;;;;;;;;;;;23.80;41.00;;;;;;4905127;28;45185;-63
2022/06/02 05:36:01;;;;;;;;;;;23.90;40.80;;;;;;4936850;28;46191;-63
2022/06/02 05:38:39;;;;;;;;;;;23.90;40.60;;;;;;4939589;28;45157;-63
2022/06/02 05:41:05;;;;;;;;;;;23.90;40.60;;;;;;4933099;28;45461;-63
2022/06/02 05:43:30;;;;;;;;;;;23.90;40.70;;;;;;4935564;28;45180;-62
2022/06/02 05:45:58;;;;;;;;;;;23.90;40.80;;;;;;4937676;28;45406;-62
2022/06/02 05:48:24;;;;;;;;;;;23.80;40.90;;;;;;4934846;28;45113;-62
2022/06/02 05:50:49;;;;;;;;;;;23.80;41.10;;;;;;4933360;28;44964;-62
2022/06/02 05:53:17;;;;;;;;;;;23.80;41.20;;;;;;4938715;28;45222;-63
2022/06/02 05:55:46;;;;;;;;;;;23.70;41.20;;;;;;4936294;28;45899;-63
2022/06/02 05:58:30;;;;;;;;;;;23.70;41.30;;;;;;4940274;28;45495;-62
2022/06/02 06:01:08;;;;;;;;;;;23.70;41.30;;;;;;4930545;28;45547;-62
2022/06/02 06:03:33;;;;;;;;;;;23.70;41.40;;;;;;4929789;28;44976;-60
2022/06/02 06:06:03;;;;;;;1.03;0.70;;;23.70;41.40;;;;;;4931875;28;46149;-59
2022/06/02 06:08:53;;;;;;;0.47;0.47;;;23.70;41.30;;;;;;4923355;28;45260;-58
2022/06/02 06:11:31;;;;;;;0.60;0.60;;;23.70;41.30;;;;;;4912537;28;45786;-59
2022/06/02 06:14:19;;;;;;;1.05;0.68;;;23.80;41.40;;;;;;4920140;28;45491;-54
2022/06/02 06:17:13;;;;;;;0.60;0.55;;;23.80;41.30;;;;;;4919563;28;46080;-58
2022/06/02 06:20:04;;;;;;;1.48;0.70;;;23.80;41.20;;;;;;4915584;28;45947;-58
2022/06/02 06:22:48;;;;;;;0.65;0.63;;;23.90;41.20;;;;;;4928905;28;45509;-57
2022/06/02 06:25:20;;;;;;;0.68;0.60;;;23.90;41.20;;;;;;4931047;28;44835;-58
2022/06/02 06:27:57;;;;;;;1.20;0.90;;;23.90;41.10;;;;;;4935028;28;46088;-59
2022/06/02 06:31:00;;;;;;;0.90;0.57;;;24.00;41.20;;;;;;4920277;28;44753;-59
2022/06/02 06:33:40;;;;;;;0.47;0.45;;;24.00;41.10;;;;;;4938213;28;44972;-57
2022/06/02 06:36:18;;;;;;;0.50;0.50;;;24.10;41.10;;;;;;4931873;28;45195;-59
2022/06/02 06:39:05;;;;;;;0.75;0.55;;;24.10;41.00;;;;;;4936946;28;45261;-60
2022/06/02 06:41:47;;;;;;;1.20;0.68;;;24.20;41.00;;;;;;4930157;28;45240;-60
2022/06/02 06:44:33;;;;;;;0.68;0.60;;;24.20;40.90;;;;;;4933031;28;45652;-60
2022/06/02 06:47:14;;;;;;;0.50;0.47;;;24.30;40.80;;;;;;4933798;28;45267;-59
2022/06/02 06:49:59;;;;;;;1.02;0.60;;;24.30;40.70;;;;;;4937044;28;45177;-59
2022/06/02 06:53:12;;;;;;;1.88;0.70;;;24.40;40.70;;;;;;4919606;28;45527;-58
2022/06/02 06:55:58;;;;;;;0.77;0.40;;;24.50;40.60;;;;;;4839015;29;44772;-58
2022/06/02 06:58:35;;;;;;;0.60;0.50;;;24.50;40.60;;;;;;4933168;28;45447;-61
2022/06/02 07:01:28;;;;;;;0.73;0.55;;;24.50;40.60;;;;;;4935048;28;46620;-61
2022/06/02 07:04:18;;;;;;;0.50;0.50;;;24.40;40.70;;;;;;4932308;28;45614;-59
2022/06/02 07:06:57;;;;;;;1.75;0.70;;;24.50;40.80;;;;;;4942018;28;44873;-58
2022/06/02 07:09:35;;;;;;;1.20;0.60;;;24.50;40.90;;;;;;4921536;28;45508;-57
2022/06/02 07:15:37;;;;;;;1.10;0.47;;;24.40;40.90;;;;;;4937510;28;45362;-57
2022/06/02 07:18:46;;;;;;;0.50;0.40;;;24.50;41.00;;;;;;4937444;28;45496;-58
2022/06/02 07:21:54;;;;;;;0.70;0.50;;;24.50;40.90;;;;;;4914247;28;44903;-58
2022/06/02 07:24:41;;;;;;;1.50;0.80;;;24.50;40.90;;;;;;4920488;28;46169;-59
2022/06/02 07:27:33;;;;;;;0.98;0.60;;;24.50;41.00;;;;;;4917676;28;45432;-57
2022/06/02 07:30:06;;;;;;;1.37;0.60;;;24.50;41.00;;;;;;4922489;28;45305;-58
2022/06/02 07:32:51;;;;;;;1.48;0.60;;;24.50;41.00;;;;;;4918692;28;45144;-60
2022/06/02 07:35:26;;;;;;;0.70;0.60;;;24.60;41.10;;;;;;4934194;28;46221;-59
2022/06/02 07:37:57;;;;;;;0.98;0.60;;;24.60;41.00;;;;;;4921682;28;45498;-59
2022/06/02 07:40:42;;;;;;;0.98;0.65;;;24.60;41.00;;;;;;4918999;28;46433;-58
2022/06/02 07:43:17;;;;;;;0.60;0.60;;;24.60;41.00;;;;;;4933834;28;46465;-59
2022/06/02 07:45:55;;;;;;;2.35;0.50;;;24.70;41.00;;;;;;4926116;28;45704;-60
2022/06/02 07:48:30;;;;;;;0.73;0.55;;;24.70;40.90;;;;;;4939027;28;45721;-60
2022/06/02 07:51:02;;;;;;;2.00;0.80;;;24.70;41.00;;;;;;4928517;28;45159;-58
2022/06/02 07:53:40;;;;;;;1.55;0.60;;;24.70;41.00;;;;;;4918426;28;45565;-59
2022/06/02 07:56:31;;;;;;;1.73;0.60;;;24.70;41.50;;;;;;4927525;28;45972;-61
2022/06/02 07:59:15;;;;;;;2.22;0.70;;;24.80;40.90;;;;;;4903363;28;45262;-61
2022/06/02 08:01:57;;;;;;;1.08;0.50;;;24.80;40.90;;;;;;4901660;28;45007;-59
2022/06/02 08:04:37;;;;;;;2.10;0.75;;;24.80;40.90;;;;;;4914551;28;44962;-58
2022/06/02 08:07:24;;;;;;;1.75;0.55;;;24.80;40.90;;;;;;4920541;28;45427;-59
2022/06/02 08:10:24;;;;;;;0.90;0.50;;;24.80;40.90;;;;;;4918838;28;45538;-61
2022/06/02 08:13:08;;;;;;;0.52;0.50;;;24.90;40.70;;;;;;4937356;28;45328;-60
2022/06/02 08:16:08;;;;;;;0.80;0.60;;;24.90;40.70;;;;;;4916352;28;45293;-59
2022/06/02 08:18:52;;;;;;;2.03;0.52;;;24.90;40.60;;;;;;4939706;28;44998;-59
2022/06/02 08:21:30;;;;;;;1.17;0.55;;;25.00;40.70;;;;;;4921998;28;45369;-59
2022/06/02 08:24:33;;;;;;;0.63;0.47;;;25.00;40.70;;;;;;4907582;28;45579;-60
2022/06/02 08:27:17;;;;;;;1.17;0.60;;;25.00;40.50;;;;;;4936066;28;45815;-61
2022/06/02 08:29:55;;;;;;;0.60;0.60;;;25.00;40.50;;;;;;4934714;28;45132;-60
2022/06/02 08:32:48;;;;;;;1.15;0.75;;;25.10;40.60;;;;;;4937920;28;45586;-59
2022/06/02 08:35:19;;;;;;;0.80;0.60;;;25.10;40.60;;;;;;4923563;28;45288;-57
2022/06/02 08:37:53;;;;;;;1.35;0.63;;;25.10;40.70;;;;;;4937983;28;45215;-59
2022/06/02 08:40:49;;;;;;;0.90;0.60;;;25.10;40.70;;;;;;4922244;28;46159;-58
2022/06/02 08:43:59;;;;;;;0.45;0.30;;;25.10;40.40;;;;;;4902780;28;45530;-59
2022/06/02 08:46:47;;;;;;;0.95;0.50;;;25.20;40.60;;;;;;4932517;28;45244;-60
2022/06/02 08:49:37;;;;;;;2.53;0.70;;;25.20;40.50;;;;;;4914669;28;45506;-58
2022/06/02 08:52:21;;;;;;;1.13;0.52;;;25.20;40.60;;;;;;4936122;28;47286;-59
2022/06/02 08:55:08;;;;;;;0.73;0.55;;;25.20;40.60;;;;;;4920308;28;44691;-60
2022/06/02 08:58:11;;;;;;;0.65;0.40;;;25.20;40.50;;;;;;4936808;28;45595;-59
2022/06/02 09:00:55;;;;;;;;;;;25.30;40.60;;;;;;4934790;28;45367;-59
2022/06/02 09:03:41;;;;;;;2.93;0.50;;;25.30;40.60;;;;;;4946119;28;45967;-60
2022/06/02 09:06:29;;;;;;;0.65;0.55;;;25.30;40.60;;;;;;4915492;28;45321;-61
2022/06/02 09:09:10;;;;;;;1.05;0.57;;;25.30;40.40;;;;;;4919139;28;45447;-59
2022/06/02 09:11:44;;;;;;;1.02;0.52;;;25.40;40.40;;;;;;4919766;28;45548;-60
2022/06/02 09:14:18;;;;;;;1.02;0.60;;;25.40;40.40;;;;;;4930720;28;46309;-59
2022/06/02 09:17:07;;;;;;;1.20;0.60;;;25.40;40.40;;;;;;4917136;28;45240;-60
2022/06/02 09:19:44;;;;;;;0.98;0.50;;;25.40;40.40;;;;;;4917876;28;44758;-59
2022/06/02 09:22:10;;;;;;;0.80;0.60;;;25.40;40.50;;;;;;4932344;28;45418;-60
2022/06/02 09:25:01;;;;;;;0.68;0.50;;;25.40;40.40;;;;;;4936661;28;45863;-59
2022/06/02 09:27:47;;;;;;;1.42;0.80;;;25.40;40.40;;;;;;4909215;28;45241;-58
2022/06/02 09:30:18;;;;;;;1.17;0.50;;;25.50;40.40;;;;;;4934760;28;45714;-58
2022/06/02 09:33:33;;;;;;;1.13;0.63;;;25.40;40.40;;;;;;4920968;28;45302;-58
2022/06/02 09:36:26;;;;;;;2.70;0.57;;;25.50;40.30;;;;;;4935267;28;46263;-59
2022/06/02 09:39:17;;;;;;;1.27;0.75;;;25.50;40.20;;;;;;4918632;28;45249;-60
2022/06/02 09:41:56;;;;;;;0.55;0.50;;;25.50;40.30;;;;;;4920965;28;45322;-58
2022/06/02 09:44:41;;;;;;;2.08;0.70;;;25.50;40.30;;;;;;4937580;28;45062;-59
2022/06/02 09:47:13;;;;;;;1.05;0.50;;;25.60;40.40;;;;;;4921332;28;46275;-61
2022/06/02 09:49:59;;;;;;;1.40;0.40;;;25.60;40.30;;;;;;4917172;28;44878;-61
2022/06/02 09:52:44;;;;;;;1.35;0.40;;;25.60;40.30;;;;;;4917291;28;45527;-59
2022/06/02 09:55:23;;;;;;;1.05;0.60;;;25.60;40.20;;;;;;4918828;28;45659;-59
2022/06/02 09:57:55;;;;;;;0.73;0.50;;;25.60;40.30;;;;;;4921537;28;45982;-60
2022/06/02 10:00:39;;;;;;;0.60;0.50;;;25.60;40.20;;;;;;4918045;28;45423;-59
2022/06/02 10:03:22;;;;;;;0.50;0.47;;;25.70;40.20;;;;;;4937966;28;44825;-59
2022/06/02 10:06:09;;;;;;;0.57;0.40;;;25.70;40.30;;;;;;4936885;28;44940;-60
2022/06/02 10:08:53;;;;;;;0.60;0.50;;;25.70;40.30;;;;;;4936682;28;45295;-58
2022/06/02 10:11:29;;;;;;;0.57;0.57;;;25.70;40.30;;;;;;4936779;28;45473;-55
2022/06/02 10:13:58;;;;;;;1.02;0.40;;;25.70;40.20;;;;;;4934846;28;45477;-62
2022/06/02 10:16:45;;;;;;;0.60;0.50;;;25.70;40.20;;;;;;4934989;28;45501;-61
2022/06/02 10:19:29;;;;;;;0.65;0.55;;;25.70;40.20;;;;;;4936424;28;45261;-62
2022/06/02 10:22:09;;;;;;;0.68;0.57;;;25.70;40.10;;;;;;4936796;28;45474;-62
2022/06/02 10:24:58;;;;;;;0.80;0.60;;;25.70;40.20;;;;;;4912297;28;45439;-62
2022/06/02 10:27:39;;;;;;;1.27;0.60;;;25.80;40.10;;;;;;4917991;28;44787;-62
2022/06/02 10:30:13;;;;;;;0.70;0.70;;;25.80;40.00;;;;;;4926818;28;45643;-62
2022/06/02 10:33:03;;;;;;;0.60;0.40;;;25.80;40.10;;;;;;4935583;28;45245;-61
2022/06/02 10:35:58;;;;;;;1.98;0.50;;;25.70;39.90;;;;;;4918864;28;45204;-61
2022/06/02 10:38:55;;;;;;;0.50;0.40;;;25.80;40.00;;;;;;4936725;28;45254;-61
2022/06/02 10:41:39;;;;;;;0.70;0.38;;;25.80;40.00;;;;;;4926476;28;46026;-62
2022/06/02 10:44:07;;;;;;;2.20;0.60;;;25.80;40.00;;;;;;4935099;28;45548;-61
2022/06/02 10:47:02;;;;;;;1.45;0.52;;;25.80;40.00;;;;;;4920835;28;45506;-61
2022/06/02 10:49:55;;;;;;;0.85;0.30;;;25.80;39.90;;;;;;4935967;28;44863;-61
2022/06/02 10:52:42;;;;;;;2.05;0.68;;;25.80;39.90;;;;;;4933802;28;45131;-60
2022/06/02 10:55:37;;;;;;;0.47;0.47;;;25.80;40.00;;;;;;4933191;28;45159;-62
2022/06/02 10:58:20;;;;;;;0.60;0.50;;;25.80;40.00;;;;;;4922446;28;45376;-62
2022/06/02 11:01:04;;;;;;;4.15;0.52;;;25.80;39.90;;;;;;4924057;28;45443;-60
2022/06/02 11:03:38;;;;;;;0.60;0.60;;;25.80;40.00;;;;;;4927393;28;45195;-59
2022/06/02 11:06:09;;;;;;;1.15;0.55;;;25.80;40.00;;;;;;4916154;28;44931;-59
2022/06/02 11:08:59;;;;;;;2.92;0.60;;;25.80;39.90;;;;;;4930372;28;45240;-60
2022/06/02 11:12:07;;;;;;;0.60;0.60;;;25.80;39.90;;;;;;4929119;28;45207;-60
2022/06/02 11:14:51;;;;;;;0.50;0.50;;;25.80;39.90;;;;;;4922001;28;46186;-59
2022/06/02 11:17:31;;;;;;;0.65;0.45;;;25.80;40.00;;;;;;4932573;28;45280;-57
2022/06/02 11:20:36;;;;;;;0.60;0.57;;;25.80;40.10;;;;;;4932295;28;45053;-58
2022/06/02 11:23:15;;;;;;;1.15;0.40;;;25.80;39.80;;;;;;4930264;28;44738;-58
2022/06/02 11:26:06;;;;;;;0.57;0.40;;;25.80;40.00;;;;;;4914274;28;46044;-59
2022/06/02 11:28:59;;;;;;;0.73;0.40;;;25.90;40.00;;;;;;4914114;28;45542;-59
2022/06/02 11:31:55;;;;;;;0.70;0.57;;;25.90;39.90;;;;;;4933518;28;45479;-59
2022/06/02 11:34:36;;;;;;;0.75;0.40;;;25.90;40.00;;;;;;4933628;28;45469;-60
2022/06/02 11:37:27;;;;;;;0.47;0.40;;;25.90;40.00;;;;;;4928820;28;45347;-59
2022/06/02 11:40:06;;;;;;;0.90;0.43;;;25.90;40.00;;;;;;4909326;28;45505;-59
2022/06/02 11:42:57;;;;;;;1.50;0.50;;;26.00;40.00;;;;;;4929650;28;45208;-59
2022/06/02 11:45:50;;;;;;;1.08;0.50;;;26.00;40.00;;;;;;4922863;28;45997;-59
2022/06/02 11:48:20;;;;;;;0.75;0.40;;;26.00;40.00;;;;;;4930843;28;45030;-61
2022/06/02 11:50:52;;;;;;;2.55;0.60;;;26.00;40.10;;;;;;4923074;28;45603;-59
2022/06/02 11:53:35;;;;;;;0.93;0.43;;;26.00;40.20;;;;;;4941505;28;45308;-59
2022/06/02 11:56:05;;;;;;;;;;;26.00;40.10;;;;;;4924434;28;45303;-60
2022/06/02 11:58:54;;;;;;;0.98;0.45;;;26.00;40.10;;;;;;4939952;28;46107;-60
2022/06/02 12:01:28;;;;;;;0.73;0.50;;;26.00;40.10;;;;;;4916717;28;45503;-59
2022/06/02 12:04:14;;;;;;;0.77;0.50;;;26.00;40.10;;;;;;4927236;28;45461;-58
2022/06/02 12:07:04;;;;;;;1.20;0.47;;;26.00;40.20;;;;;;4923412;28;46576;-59
2022/06/02 12:09:48;;;;;;;0.70;0.50;;;26.00;40.20;;;;;;4925117;28;45072;-58
2022/06/02 12:12:33;;;;;;;0.55;0.43;;;26.10;40.30;;;;;;4938247;28;45263;-59
2022/06/02 12:15:14;;;;;;;1.17;0.60;;;26.10;40.30;;;;;;4924786;28;45518;-58
2022/06/02 12:18:02;;;;;;;0.63;0.60;;;26.10;40.30;;;;;;4941120;28;44709;-58
2022/06/02 12:20:53;;;;;;;0.70;0.50;;;26.10;40.30;;;;;;4933441;28;46078;-60
2022/06/02 12:23:59;;;;;;;1.10;0.50;;;26.10;40.30;;;;;;4941110;28;44990;-59
2022/06/02 12:26:53;;;;;;;0.73;0.38;;;26.10;40.20;;;;;;4926176;28;44762;-60
2022/06/02 12:29:31;;;;;;;0.68;0.45;;;26.10;40.30;;;;;;4927323;28;45517;-60
2022/06/02 12:32:30;;;;;;;0.40;0.40;;;26.10;40.30;;;;;;4938560;28;46176;-58
2022/06/02 12:35:08;;;;;;;0.30;0.30;;;26.20;40.40;;;;;;4944272;28;45278;-58
2022/06/02 12:38:03;;;;;;;1.98;0.40;;;26.20;40.40;;;;;;4918245;28;45410;-58
2022/06/02 12:40:42;;;;;;;1.15;0.50;;;26.20;40.40;;;;;;4923377;28;45608;-58
2022/06/02 12:43:20;;;;;;;1.58;0.47;;;26.10;40.30;;;;;;4940584;28;46477;-60
2022/06/02 12:45:47;;;;;;;0.80;0.38;;;26.20;40.40;;;;;;4942910;28;45238;-59
2022/06/02 12:48:37;;;;;;;0.50;0.50;;;26.20;40.40;;;;;;4921066;28;45354;-62
2022/06/02 12:51:30;;;;;;;1.17;0.40;;;26.20;40.40;;;;;;4919915;28;46400;-61
2022/06/02 12:54:11;;;;;;;0.30;0.30;;;26.20;40.40;;;;;;4932669;28;45835;-61
2022/06/02 12:56:50;;;;;;;0.47;0.43;;;26.20;40.50;;;;;;4945123;28;45299;-59
2022/06/02 12:59:34;;;;;;;1.42;0.40;;;26.20;40.40;;;;;;4938925;28;45312;-60
2022/06/02 13:02:04;;;;;;;0.45;0.45;;;26.30;40.50;;;;;;4940903;28;45367;-59
2022/06/02 13:05:08;;;;;;;0.45;0.45;;;26.30;40.30;;;;;;4935582;28;45409;-60
2022/06/02 13:08:11;;;;;;;0.38;0.38;;;26.30;40.20;;;;;;4920878;28;45216;-60
2022/06/02 13:10:58;;;;;;;2.25;0.50;;;26.30;40.00;;;;;;4936376;28;45354;-62
2022/06/02 13:13:51;;;;;;;1.05;0.50;;;26.30;40.10;;;;;;4937558;28;45189;-61
2022/06/02 13:16:22;;;;;;;0.30;0.30;;;26.30;39.90;;;;;;4932793;28;45161;-61
2022/06/02 13:18:50;;;;;;;0.90;0.38;;;26.30;39.90;;;;;;4941298;28;44679;-59
2022/06/02 13:21:28;;;;;;;1.30;0.50;;;26.30;40.00;;;;;;4937766;28;45249;-60
2022/06/02 13:23:53;;;;;;;0.80;0.65;;;26.30;40.00;;;;;;4926050;28;45120;-58
2022/06/02 13:26:48;;;;;;;0.70;0.30;;;26.30;39.90;;;;;;4936606;28;46185;-58
2022/06/02 13:29:36;;;;;;;2.33;0.50;;;26.30;39.80;;;;;;4920788;28;44924;-59
2022/06/02 13:32:25;;;;;;;0.40;0.40;;;26.30;39.90;;;;;;4940131;28;44737;-62
2022/06/02 13:35:09;;;;;;;0.40;0.40;;;26.30;39.90;;;;;;4922503;28;44747;-62
2022/06/02 13:37:53;;;;;;;2.78;0.50;;;26.30;39.80;;;;;;4938784;28;45197;-61
2022/06/02 13:40:45;;;;;;;1.00;0.65;;;26.30;40.00;;;;;;4940693;28;45141;-60
2022/06/02 13:43:34;;;;;;;0.70;0.60;;;26.40;40.10;;;;;;4922131;28;44818;-59
2022/06/02 13:46:31;;;;;;;0.60;0.57;;;26.30;40.70;;;;;;4916440;28;45153;-61
2022/06/02 13:49:34;;;;;;;0.40;0.40;;;26.30;40.00;;;;;;4942457;28;46074;-61
2022/06/02 13:52:31;;;;;;;0.75;0.50;;;26.40;40.10;;;;;;4939952;28;45277;-59
2022/06/02 13:58:43;;;;;;;0.40;0.40;;;26.40;40.20;;;;;;4911352;28;45208;-61
2022/06/02 14:01:21;;;;;;;0.90;0.40;;;26.40;40.20;;;;;;4938717;28;46156;-61
2022/06/02 14:04:07;;;;;;;0.50;0.50;;;26.40;40.20;;;;;;4937545;28;45113;-60
2022/06/02 14:07:00;;;;;;;0.93;0.30;;;26.40;40.20;;;;;;4920681;28;45405;-60
2022/06/02 14:09:43;;;;;;;0.95;0.50;;;26.40;40.20;;;;;;4919134;28;45158;-61
2022/06/02 14:12:27;;;;;;;;;;;26.40;40.20;;;;;;4916216;28;45344;-61
2022/06/02 14:14:55;;;;;;;1.20;0.50;;;26.40;40.30;;;;;;4936959;28;45291;-62
2022/06/02 14:17:33;;;;;;;0.60;0.60;;;26.40;40.30;;;;;;4939473;28;45597;-62
2022/06/02 14:20:17;;;;;;;0.68;0.52;;;26.40;40.20;;;;;;4936486;28;45226;-61
2022/06/02 14:22:55;;;;;;;0.57;0.57;;;26.40;40.10;;;;;;4936212;28;46167;-62
2022/06/02 14:25:46;;;;;;;0.60;0.32;;;26.40;40.20;;;;;;4934886;28;45274;-62
2022/06/02 14:28:30;;;;;;;0.50;0.50;;;26.40;40.30;;;;;;4940290;28;45444;-62
2022/06/02 14:31:08;;;;;;;0.40;0.40;;;26.40;40.30;;;;;;4935314;28;45489;-61
2022/06/02 14:33:35;;;;;;;0.47;0.47;;;26.40;40.90;;;;;;4932742;28;45394;-62
2022/06/02 14:36:18;;;;;;;0.40;0.40;;;26.40;40.30;;;;;;4918897;28;45434;-61
2022/06/02 14:39:04;;;;;;;0.60;0.50;;;26.40;40.30;;;;;;4923688;28;45015;-61
2022/06/02 14:41:38;;;;;;;0.40;0.40;;;26.40;40.30;;;;;;4938782;28;45473;-62
2022/06/02 14:44:14;;;;;;;0.38;0.38;;;26.40;40.40;;;;;;4921112;28;46155;-62
2022/06/02 14:47:01;;;;;;;0.60;0.40;;;26.40;40.30;;;;;;4920646;28;45197;-62
2022/06/02 14:49:54;;;;;;;0.60;0.50;;;26.40;40.40;;;;;;4938795;28;45223;-62
2022/06/02 14:52:43;;;;;;;0.50;0.50;;;26.40;40.40;;;;;;4937142;28;44893;-62
2022/06/02 14:55:27;;;;;;;0.68;0.50;;;26.40;40.40;;;;;;4922940;28;47851;-60
2022/06/02 14:58:05;;;;;;;0.73;0.30;;;26.40;40.40;;;;;;4924815;28;45389;-62
2022/06/02 15:00:49;;;;;;;0.30;0.30;;;26.40;40.40;;;;;;4914799;28;45221;-62
2022/06/02 15:03:49;;;;;;;1.35;0.60;;;26.30;40.40;;;;;;4902805;28;44908;-61
2022/06/02 15:06:41;;;;;;;0.40;0.40;;;26.30;40.40;;;;;;4925321;28;45938;-62
2022/06/02 15:09:39;;;;;;;0.30;0.30;;;26.30;40.30;;;;;;4921642;28;45339;-61
2022/06/02 15:12:19;;;;;;;1.10;0.50;;;26.30;40.30;;;;;;4930638;28;45402;-62
2022/06/02 15:15:07;;;;;;;1.38;0.52;;;26.30;40.40;;;;;;4914344;28;45187;-62
2022/06/02 15:17:57;;;;;;;0.77;0.40;;;26.30;40.30;;;;;;4913092;28;46806;-62
2022/06/02 15:20:45;;;;;;;0.57;0.57;;;26.30;40.40;;;;;;4933073;28;44742;-62
2022/06/02 15:23:39;;;;;;;0.55;0.40;;;26.30;40.30;;;;;;4933826;28;44736;-62
2022/06/02 15:26:33;;;;;;;0.50;0.50;;;26.30;40.30;;;;;;4905330;28;44936;-62
2022/06/02 15:29:43;;;;;;;1.48;0.40;;;26.30;40.30;;;;;;4935319;28;45612;-63
2022/06/02 15:32:35;;;;;;;0.75;0.38;;;26.30;40.40;;;;;;4917410;28;45308;-62
2022/06/02 15:35:29;;;;;;;0.50;0.40;;;26.30;40.40;;;;;;4921446;28;45435;-62
2022/06/02 15:38:15;;;;;;;1.05;0.47;;;26.30;40.40;;;;;;4933320;28;45213;-62
2022/06/02 15:40:56;;;;;;;0.80;0.43;;;26.30;40.40;;;;;;4891034;28;45494;-62
2022/06/02 15:43:53;;;;;;;0.90;0.40;;;26.30;40.40;;;;;;4932110;28;45108;-62
2022/06/02 15:46:24;;;;;;;0.52;0.52;;;26.30;40.30;;;;;;4933490;28;45494;-62
2022/06/02 15:49:06;;;;;;;1.35;0.70;;;26.30;40.30;;;;;;4912905;28;45761;-62
2022/06/02 15:51:57;;;;;;;0.68;0.65;;;26.30;40.30;;;;;;4916601;28;45955;-61
2022/06/02 15:54:45;;;;;;;0.45;0.40;;;26.30;40.20;;;;;;4936212;28;44944;-61
2022/06/02 15:57:42;;;;;;;0.63;0.50;;;26.30;40.20;;;;;;4930506;28;45179;-62
2022/06/02 16:00:39;;;;;;;0.57;0.40;;;26.30;40.20;;;;;;4924214;28;45718;-61
2022/06/02 16:03:36;;;;;;;0.50;0.50;;;26.30;40.20;;;;;;4935406;28;46257;-62
2022/06/02 16:06:20;;;;;;;0.40;0.40;;;26.30;40.20;;;;;;4916998;28;45281;-61
2022/06/02 16:12:02;;;;;;;0.80;0.50;;;26.30;40.20;;;;;;4935894;28;45430;-61
2022/06/02 16:14:50;;;;;;;0.50;0.47;;;26.30;40.30;;;;;;4934076;28;45295;-62
2022/06/02 16:17:45;;;;;;;0.60;0.57;;;26.30;40.20;;;;;;4913071;28;45451;-62
2022/06/02 16:20:49;;;;;;;0.85;0.50;;;26.30;40.20;;;;;;4894913;28;45137;-62
2022/06/02 16:23:33;;;;;;;0.55;0.50;;;26.30;40.20;;;;;;4930708;28;45378;-62
2022/06/02 16:26:36;;;;;;;0.57;0.40;;;26.30;40.90;;;;;;4935389;28;46059;-62
2022/06/02 16:29:39;;;;;;;0.85;0.50;;;26.20;40.20;;;;;;4932583;28;45802;-62
2022/06/02 16:32:05;;;;;;;0.50;0.50;;;26.30;40.20;;;;;;4930975;28;45214;-62
2022/06/02 16:34:49;;;;;;;0.50;0.50;;;26.30;40.30;;;;;;4926598;28;45290;-62
2022/06/02 16:37:38;;;;;;;0.60;0.47;;;26.20;40.20;;;;;;4934795;28;47052;-62
2022/06/02 16:40:28;;;;;;;0.50;0.28;;;26.30;40.20;;;;;;4915909;28;45317;-62
2022/06/02 16:43:20;;;;;;;0.40;0.40;;;26.20;40.10;;;;;;4913328;28;45241;-62
2022/06/02 16:46:08;;;;;;;0.63;0.55;;;26.30;40.20;;;;;;4916749;28;45393;-62
2022/06/02 16:48:58;;;;;;;0.70;0.40;;;26.20;40.20;;;;;;4931030;28;45480;-61
2022/06/02 16:51:49;;;;;;;0.60;0.50;;;26.30;40.20;;;;;;4933119;28;45619;-62
2022/06/02 16:54:25;;;;;;;0.73;0.43;;;26.20;40.20;;;;;;4915978;28;45660;-62
2022/06/02 16:57:34;;;;;;;1.48;0.57;;;26.20;40.20;;;;;;4927646;28;46044;-61
2022/06/02 17:00:22;;;;;;;0.50;0.50;;;26.30;40.30;;;;;;4932147;28;45199;-66
2022/06/02 17:03:06;;;;;;;0.50;0.50;;;26.20;40.20;;;;;;4927630;28;45692;-64
2022/06/02 17:05:58;;;;;;;1.30;0.50;;;26.20;40.30;;;;;;4916322;28;45502;-60
2022/06/02 17:08:40;;;;;;;0.50;0.50;;;26.20;40.30;;;;;;4916567;28;45307;-62
2022/06/02 17:11:18;;;;;;;0.40;0.40;;;26.20;40.30;;;;;;4912540;28;45639;-61
2022/06/02 17:14:02;;;;;;;0.55;0.43;;;26.20;40.30;;;;;;4911159;28;45556;-61
2022/06/02 17:17:07;;;;;;;0.80;0.70;;;26.20;40.40;;;;;;4867828;28;45776;-63
2022/06/02 17:19:45;;;;;;;0.50;0.40;;;26.20;40.40;;;;;;4927757;28;45838;-60
2022/06/02 17:22:34;;;;;;;0.73;0.52;;;26.20;40.40;;;;;;4915097;28;45929;-60
2022/06/02 17:25:03;;;;;;;0.40;0.40;;;26.20;40.50;;;;;;4924812;28;44806;-62
2022/06/02 17:27:53;;;;;;;0.40;0.40;;;26.20;40.50;;;;;;4913971;28;45443;-65
2022/06/02 17:30:25;;;;;;;0.45;0.30;;;26.20;40.40;;;;;;4927402;28;45470;-62
2022/06/02 17:33:15;;;;;;;0.38;0.38;;;26.10;40.50;;;;;;4910397;28;48004;-62
2022/06/02 17:36:11;;;;;;;0.40;0.40;;;26.20;40.60;;;;;;4922227;28;45252;-62
2022/06/02 17:39:15;;;;;;;0.50;0.50;;;26.20;40.60;;;;;;4915717;28;45401;-61
2022/06/02 17:41:59;;;;;;;1.02;0.50;;;26.10;40.50;;;;;;4916753;28;46406;-62